Аэропорт: Одесса. Одесса

ICAO: UKOO

METAR:
2019/01/21 23:00
UKOO 212300Z 36003MPS 9999 BKN023 M04/M06 Q1023 R34/190056 NOSIG
METAR:
2019/01/21 18:15
TAF UKOO 211706Z 2118/2218 36005G11MPS 2100 BR SCT004 BKN007 SCT016CB TXM00/2212Z TNM06/2202Z PROB40 
      TEMPO 2118/2121 0300 FZFG VV002 
      TEMPO 2121/2206 0300 FZFG VV002 
      BECMG 2206/2207 05003MPS 
      TEMPO 2207/2218 10003G08MPS 2100 -SHSN